createdAt,value
2023-03-07T00:00:38.410Z,17.50
2023-03-07T00:01:51.077Z,17.20
2023-03-07T00:02:54.576Z,19.70
2023-03-07T00:03:58.633Z,18.90
2023-03-07T00:05:01.928Z,18.00
2023-03-07T00:06:09.441Z,16.70
2023-03-07T00:07:15.091Z,15.80
2023-03-07T00:08:21.288Z,15.60
2023-03-07T00:09:24.207Z,16.50
2023-03-07T00:10:27.506Z,16.20
2023-03-07T00:11:31.074Z,16.00
2023-03-07T00:12:33.897Z,15.70
2023-03-07T00:13:38.292Z,16.10
2023-03-07T00:14:42.186Z,16.60
2023-03-07T00:15:46.296Z,16.70
2023-03-07T00:16:51.677Z,17.90
2023-03-07T00:17:55.088Z,16.50
2023-03-07T00:18:57.957Z,16.90
2023-03-07T00:20:00.851Z,17.90
2023-03-07T00:21:08.272Z,17.70
2023-03-07T00:22:14.430Z,17.80
2023-03-07T00:23:18.030Z,17.60
2023-03-07T00:24:20.981Z,17.50
2023-03-07T00:25:23.892Z,16.90
2023-03-07T00:26:28.021Z,17.70
2023-03-07T00:27:34.891Z,16.70
2023-03-07T00:28:37.791Z,17.20
2023-03-07T00:29:40.783Z,16.20
2023-03-07T00:30:43.881Z,15.40
2023-03-07T00:31:49.730Z,17.70
2023-03-07T00:32:52.599Z,16.80
2023-03-07T00:33:55.491Z,17.80
2023-03-07T00:35:00.146Z,14.90
2023-03-07T00:36:07.643Z,17.00
2023-03-07T00:37:12.247Z,16.30
2023-03-07T00:38:17.655Z,17.10
2023-03-07T00:39:20.669Z,17.10
2023-03-07T00:40:23.556Z,17.20
2023-03-07T00:41:29.060Z,18.40
2023-03-07T00:42:33.642Z,17.70
2023-03-07T00:43:38.120Z,17.30
2023-03-07T00:44:41.038Z,17.20
2023-03-07T00:45:43.975Z,18.70
2023-03-07T00:46:47.341Z,19.00
2023-03-07T00:47:51.556Z,18.50
2023-03-07T00:48:55.613Z,17.90
2023-03-07T00:49:58.482Z,18.90
2023-03-07T00:51:01.718Z,18.00
2023-03-07T00:52:05.288Z,18.80
2023-03-07T00:53:09.143Z,19.30
2023-03-07T00:54:12.527Z,15.80
2023-03-07T00:55:16.707Z,17.10
2023-03-07T00:56:25.960Z,17.20
2023-03-07T00:57:32.705Z,15.70
2023-03-07T00:58:38.308Z,15.80
2023-03-07T00:59:41.127Z,16.90
2023-03-07T01:00:48.553Z,16.20
2023-03-07T01:01:52.356Z,16.80
2023-03-07T01:03:02.258Z,17.10
2023-03-07T01:04:08.251Z,15.90
2023-03-07T01:05:15.603Z,15.40
2023-03-07T01:06:20.835Z,14.00
2023-03-07T01:07:24.997Z,14.70
2023-03-07T01:08:28.894Z,14.90
2023-03-07T01:09:35.054Z,14.50
2023-03-07T01:10:38.533Z,14.80
2023-03-07T01:11:41.759Z,13.80
2023-03-07T01:12:45.242Z,14.90
2023-03-07T01:13:48.547Z,13.60
2023-03-07T01:14:52.349Z,14.00
2023-03-07T01:15:55.295Z,14.00
2023-03-07T01:16:58.193Z,14.50
2023-03-07T01:18:03.661Z,14.40
2023-03-07T01:19:08.374Z,14.50
2023-03-07T01:20:12.015Z,14.70
2023-03-07T01:21:21.539Z,14.70
2023-03-07T01:22:25.314Z,15.60
2023-03-07T01:23:28.329Z,15.70
2023-03-07T01:24:31.586Z,15.40
2023-03-07T01:25:43.139Z,15.20
2023-03-07T01:26:46.528Z,15.60
2023-03-07T01:27:52.465Z,14.70
2023-03-07T01:28:58.459Z,14.50
2023-03-07T01:30:01.430Z,15.60
2023-03-07T01:31:04.661Z,15.00
2023-03-07T01:32:07.751Z,14.80
2023-03-07T01:33:11.108Z,14.30
2023-03-07T01:34:14.266Z,14.20
2023-03-07T01:35:17.431Z,14.90
2023-03-07T01:36:25.465Z,15.00
2023-03-07T01:37:28.880Z,14.30
2023-03-07T01:38:34.134Z,14.90
2023-03-07T01:39:39.099Z,13.40
2023-03-07T01:40:45.226Z,14.90
2023-03-07T01:41:49.026Z,15.50
2023-03-07T01:42:53.527Z,13.60
2023-03-07T01:44:05.364Z,15.80
2023-03-07T01:45:12.194Z,15.40
2023-03-07T01:46:18.625Z,14.90
2023-03-07T01:47:28.024Z,15.60
2023-03-07T01:48:30.949Z,14.60
2023-03-07T01:49:41.041Z,16.30
2023-03-07T01:50:44.599Z,16.10
2023-03-07T01:51:52.422Z,16.70
2023-03-07T01:53:00.561Z,16.70
2023-03-07T01:54:06.344Z,16.60
2023-03-07T01:55:12.366Z,15.70
2023-03-07T01:56:16.401Z,16.50
2023-03-07T01:57:22.037Z,17.90
2023-03-07T01:58:25.500Z,15.10
2023-03-07T01:59:32.785Z,16.60
2023-03-07T02:00:38.541Z,15.40
2023-03-07T02:01:41.515Z,16.70
2023-03-07T02:02:47.895Z,17.10
2023-03-07T02:03:55.316Z,16.80
2023-03-07T02:05:14.565Z,16.70
2023-03-07T02:06:18.674Z,16.00
2023-03-07T02:07:24.920Z,16.90
2023-03-07T02:08:30.621Z,15.70
2023-03-07T02:09:35.402Z,17.50
2023-03-07T02:10:40.509Z,16.40
2023-03-07T02:11:45.356Z,15.50
2023-03-07T02:12:51.959Z,17.00
2023-03-07T02:13:55.017Z,17.50
2023-03-07T02:14:58.277Z,17.10
2023-03-07T02:16:02.681Z,16.70
2023-03-07T02:17:05.975Z,16.50
2023-03-07T02:18:13.177Z,17.30
2023-03-07T02:19:40.603Z,17.90
2023-03-07T02:21:01.726Z,16.70
2023-03-07T02:22:12.396Z,17.40
2023-03-07T02:24:37.937Z,16.70
2023-03-07T02:26:02.499Z,16.30
2023-03-07T02:27:06.218Z,16.60
2023-03-07T02:28:13.278Z,16.90
2023-03-07T02:29:17.131Z,17.60
2023-03-07T02:30:21.805Z,17.50
2023-03-07T02:31:42.599Z,15.80
2023-03-07T02:32:45.805Z,16.90
2023-03-07T02:33:49.913Z,16.90
2023-03-07T02:34:53.198Z,17.60
2023-03-07T02:36:03.036Z,16.80
2023-03-07T02:37:11.289Z,16.50
2023-03-07T02:38:14.668Z,17.20
2023-03-07T02:39:21.572Z,16.30
2023-03-07T02:40:29.580Z,16.60
2023-03-07T02:41:34.231Z,16.20
2023-03-07T02:42:42.763Z,16.60
2023-03-07T02:43:48.264Z,18.00
2023-03-07T02:45:02.028Z,16.90
2023-03-07T02:46:07.171Z,16.30
2023-03-07T02:47:10.144Z,17.00
2023-03-07T02:48:14.030Z,16.60
2023-03-07T02:49:18.417Z,15.60
2023-03-07T02:50:21.515Z,16.30
2023-03-07T02:51:27.100Z,16.80
2023-03-07T02:52:30.151Z,15.70
2023-03-07T02:53:33.459Z,15.60
2023-03-07T02:54:36.637Z,16.00
2023-03-07T02:55:39.453Z,16.80
2023-03-07T02:56:42.546Z,17.20
2023-03-07T02:57:45.468Z,16.30
2023-03-07T02:58:48.337Z,16.80
2023-03-07T02:59:51.506Z,17.60
2023-03-07T03:00:54.579Z,17.20
2023-03-07T03:01:58.369Z,15.80
2023-03-07T03:03:01.295Z,16.10
2023-03-07T03:04:04.342Z,16.20
2023-03-07T03:05:10.284Z,16.80
2023-03-07T03:06:13.962Z,16.60
2023-03-07T03:07:16.913Z,16.20
2023-03-07T03:08:19.876Z,16.10
2023-03-07T03:09:22.837Z,16.70
2023-03-07T03:10:25.937Z,16.80
2023-03-07T03:11:29.244Z,16.80
2023-03-07T03:12:32.529Z,16.00
2023-03-07T03:13:37.681Z,16.70
2023-03-07T03:14:42.613Z,15.70
2023-03-07T03:15:45.780Z,15.40
2023-03-07T03:16:49.587Z,16.90
2023-03-07T03:17:55.109Z,15.00
2023-03-07T03:18:58.537Z,15.50
2023-03-07T03:20:01.515Z,15.20
2023-03-07T03:21:11.469Z,16.70
2023-03-07T03:22:14.943Z,16.50
2023-03-07T03:23:20.522Z,16.10
2023-03-07T03:24:23.501Z,16.40
2023-03-07T03:25:27.276Z,15.10
2023-03-07T03:26:30.444Z,16.00
2023-03-07T03:27:33.519Z,15.10
2023-03-07T03:28:37.994Z,15.10
2023-03-07T03:29:41.133Z,15.40
2023-03-07T03:30:44.126Z,16.00
2023-03-07T03:31:47.208Z,16.30
2023-03-07T03:32:50.136Z,15.80
2023-03-07T03:33:53.455Z,16.10
2023-03-07T03:34:56.704Z,18.30
2023-03-07T03:36:01.319Z,16.10
2023-03-07T03:37:04.607Z,20.10
2023-03-07T03:38:08.446Z,18.80
2023-03-07T03:39:11.458Z,19.80
2023-03-07T03:40:19.738Z,20.00
2023-03-07T03:41:23.501Z,21.10
2023-03-07T03:42:26.644Z,23.70
2023-03-07T03:43:29.699Z,28.00
2023-03-07T03:44:32.638Z,27.40
2023-03-07T03:45:35.590Z,29.50
2023-03-07T03:46:38.510Z,28.70
2023-03-07T03:47:41.821Z,29.30
2023-03-07T03:48:45.332Z,26.00
2023-03-07T03:49:48.499Z,26.50
2023-03-07T03:50:51.512Z,26.60
2023-03-07T03:51:54.474Z,26.70
2023-03-07T03:52:57.715Z,27.30
2023-03-07T03:54:00.762Z,28.40
2023-03-07T03:55:05.246Z,29.50
2023-03-07T03:56:13.704Z,30.80
2023-03-07T03:57:20.624Z,28.70
2023-03-07T03:58:23.696Z,44.20
2023-03-07T03:59:26.752Z,43.80
2023-03-07T04:00:30.702Z,46.20
2023-03-07T04:01:33.633Z,43.80
2023-03-07T04:02:36.784Z,43.00
2023-03-07T04:03:43.863Z,42.60
2023-03-07T04:04:46.800Z,41.00
2023-03-07T04:05:49.621Z,43.00
2023-03-07T04:06:53.027Z,40.00
2023-03-07T04:07:56.022Z,36.70
2023-03-07T04:08:59.547Z,36.00
2023-03-07T04:10:02.455Z,36.60
2023-03-07T04:11:06.425Z,34.80
2023-03-07T04:12:09.364Z,31.80
2023-03-07T04:13:12.304Z,31.50
2023-03-07T04:14:15.479Z,30.50
2023-03-07T04:15:18.668Z,31.00
2023-03-07T04:16:24.579Z,28.80
2023-03-07T04:17:27.434Z,25.70
2023-03-07T04:18:30.533Z,23.30
2023-03-07T04:19:34.145Z,22.90
2023-03-07T04:20:37.433Z,26.60
2023-03-07T04:21:41.035Z,23.60
2023-03-07T04:22:44.930Z,24.70
2023-03-07T04:23:50.281Z,25.70
2023-03-07T04:24:53.384Z,26.30
2023-03-07T04:25:58.602Z,26.30
2023-03-07T04:27:02.592Z,27.00
2023-03-07T04:28:05.654Z,27.20
2023-03-07T04:29:10.074Z,24.20
2023-03-07T04:30:17.646Z,25.50
2023-03-07T04:31:23.834Z,23.40
2023-03-07T04:32:27.201Z,22.00
2023-03-07T04:33:30.352Z,20.60
2023-03-07T04:34:33.251Z,21.10
2023-03-07T04:35:36.562Z,20.10
2023-03-07T04:36:39.706Z,21.00
2023-03-07T04:37:42.588Z,20.50
2023-03-07T04:38:47.405Z,22.60
2023-03-07T04:39:50.515Z,23.20
2023-03-07T04:40:53.716Z,25.00
2023-03-07T04:41:56.645Z,23.00
2023-03-07T04:43:00.530Z,24.90
2023-03-07T04:44:03.555Z,23.40
2023-03-07T04:45:07.268Z,22.50
2023-03-07T04:46:12.887Z,22.80
2023-03-07T04:47:15.834Z,22.50
2023-03-07T04:48:19.145Z,24.20
2023-03-07T04:49:21.998Z,21.90
2023-03-07T04:50:25.275Z,21.10
2023-03-07T04:51:28.392Z,20.50
2023-03-07T04:52:31.661Z,19.80
2023-03-07T04:53:34.900Z,19.70
2023-03-07T04:54:40.853Z,18.70
2023-03-07T04:55:44.840Z,18.30
2023-03-07T04:56:48.009Z,19.00
2023-03-07T04:57:52.160Z,19.00
2023-03-07T04:58:55.191Z,19.20
2023-03-07T04:59:58.096Z,18.80
2023-03-07T05:01:02.684Z,18.20
2023-03-07T05:02:12.706Z,17.10
2023-03-07T05:03:17.036Z,17.20
2023-03-07T05:04:19.957Z,16.80
2023-03-07T05:05:22.911Z,17.20
2023-03-07T05:06:25.960Z,16.40
2023-03-07T05:07:30.092Z,16.40
2023-03-07T05:08:33.083Z,16.70
2023-03-07T05:09:36.318Z,15.50
2023-03-07T05:10:39.882Z,15.80
2023-03-07T05:11:42.831Z,15.80
2023-03-07T05:12:45.930Z,17.40
2023-03-07T05:13:49.032Z,16.50
2023-03-07T05:14:54.903Z,15.30
2023-03-07T05:15:59.288Z,15.60
2023-03-07T05:17:03.256Z,16.70
2023-03-07T05:18:07.209Z,16.50
2023-03-07T05:19:10.734Z,15.70
2023-03-07T05:20:14.227Z,15.90
2023-03-07T05:21:17.848Z,16.90
2023-03-07T05:22:21.094Z,16.50
2023-03-07T05:23:25.099Z,16.80
2023-03-07T05:24:29.273Z,15.80
2023-03-07T05:25:33.135Z,15.70
2023-03-07T05:26:36.215Z,16.50
2023-03-07T05:27:39.130Z,16.10
2023-03-07T05:28:42.234Z,15.70
2023-03-07T05:29:45.275Z,16.80
2023-03-07T05:30:48.304Z,16.30
2023-03-07T05:31:51.296Z,15.60
2023-03-07T05:32:54.474Z,15.70
2023-03-07T05:33:57.672Z,17.20
2023-03-07T05:35:01.021Z,17.10
2023-03-07T05:36:04.268Z,17.40
2023-03-07T05:37:08.206Z,16.70
2023-03-07T05:38:11.480Z,17.20
2023-03-07T05:39:16.073Z,17.10
2023-03-07T05:40:19.489Z,17.80
2023-03-07T05:41:23.779Z,18.40
2023-03-07T05:42:26.636Z,18.40
2023-03-07T05:43:29.512Z,18.70
2023-03-07T05:44:34.239Z,18.60
2023-03-07T05:45:38.165Z,19.50
2023-03-07T05:46:41.457Z,20.20
2023-03-07T05:47:44.934Z,20.60
2023-03-07T05:48:49.155Z,18.80
2023-03-07T05:49:53.525Z,18.80
2023-03-07T05:51:00.245Z,18.30
2023-03-07T05:52:03.785Z,18.90
2023-03-07T05:53:06.672Z,18.20
2023-03-07T05:54:09.889Z,18.30
2023-03-07T05:55:12.867Z,18.40
2023-03-07T05:56:15.869Z,18.70
2023-03-07T05:57:18.782Z,18.20
2023-03-07T05:58:21.648Z,17.80
2023-03-07T05:59:25.135Z,17.90
2023-03-07T06:00:28.641Z,17.50
2023-03-07T06:01:35.009Z,17.10
2023-03-07T06:02:38.345Z,17.00
2023-03-07T06:03:43.152Z,17.70
2023-03-07T06:04:47.112Z,17.90
2023-03-07T06:05:50.603Z,18.20
2023-03-07T06:06:53.546Z,17.00
2023-03-07T06:07:56.696Z,17.10
2023-03-07T06:08:59.881Z,17.40
2023-03-07T06:10:03.489Z,16.50
2023-03-07T06:11:06.478Z,17.20
2023-03-07T06:12:11.004Z,16.20
2023-03-07T06:13:20.043Z,16.80
2023-03-07T06:14:23.042Z,17.70
2023-03-07T06:15:26.201Z,17.90
2023-03-07T06:16:34.250Z,16.90
2023-03-07T06:17:38.245Z,17.70
2023-03-07T06:18:42.367Z,17.40
2023-03-07T06:19:45.345Z,17.60
2023-03-07T06:20:59.093Z,18.10
2023-03-07T06:22:03.079Z,18.00
2023-03-07T06:23:06.936Z,17.70
2023-03-07T06:24:10.080Z,17.80
2023-03-07T06:25:15.367Z,17.50
2023-03-07T06:26:18.468Z,18.40
2023-03-07T06:27:23.674Z,18.00
2023-03-07T06:28:27.808Z,17.50
2023-03-07T06:29:30.871Z,16.60
2023-03-07T06:30:34.182Z,15.40
2023-03-07T06:31:37.184Z,16.10
2023-03-07T06:32:40.487Z,17.20
2023-03-07T06:33:44.310Z,16.30
2023-03-07T06:34:50.395Z,17.00
2023-03-07T06:35:53.397Z,15.50
2023-03-07T06:36:56.378Z,15.60
2023-03-07T06:38:00.587Z,16.30
2023-03-07T06:39:04.134Z,16.20
2023-03-07T06:40:09.432Z,16.10
2023-03-07T06:41:12.566Z,16.30
2023-03-07T06:42:16.278Z,15.80
2023-03-07T06:43:19.221Z,16.10
2023-03-07T06:44:22.087Z,16.40
2023-03-07T06:45:26.020Z,16.00
2023-03-07T06:46:28.937Z,16.60
2023-03-07T06:47:32.218Z,16.80
2023-03-07T06:48:35.621Z,15.70
2023-03-07T06:49:39.514Z,16.10
2023-03-07T06:50:42.555Z,17.90
2023-03-07T06:51:45.510Z,16.80
2023-03-07T06:52:49.976Z,17.10
2023-03-07T06:53:53.181Z,16.90
2023-03-07T06:54:56.020Z,17.00
2023-03-07T06:55:59.459Z,16.90
2023-03-07T06:57:02.930Z,17.30
2023-03-07T06:58:05.789Z,17.70
2023-03-07T06:59:08.648Z,17.50
2023-03-07T07:00:13.028Z,17.60
2023-03-07T07:01:18.472Z,18.10
2023-03-07T07:02:22.562Z,17.10
2023-03-07T07:03:26.022Z,16.70
2023-03-07T07:04:30.084Z,17.40
2023-03-07T07:05:32.998Z,17.10
2023-03-07T07:06:35.848Z,18.00
2023-03-07T07:07:38.820Z,18.60
2023-03-07T07:08:41.785Z,19.20
2023-03-07T07:09:45.076Z,18.70
2023-03-07T07:10:48.013Z,18.90
2023-03-07T07:11:51.358Z,18.00
2023-03-07T07:12:56.730Z,18.80
2023-03-07T07:13:59.857Z,18.10
2023-03-07T07:15:05.610Z,19.70
2023-03-07T07:16:09.615Z,17.30
2023-03-07T07:17:15.154Z,18.30
2023-03-07T07:18:18.762Z,18.40
2023-03-07T07:19:22.224Z,18.10
2023-03-07T07:20:25.210Z,18.60
2023-03-07T07:21:28.481Z,16.80
2023-03-07T07:22:32.432Z,17.00
2023-03-07T07:23:35.548Z,16.20
2023-03-07T07:24:39.971Z,17.70
2023-03-07T07:25:43.262Z,18.10
2023-03-07T07:26:46.078Z,19.60
2023-03-07T07:27:48.942Z,19.60
2023-03-07T07:28:52.432Z,19.50
2023-03-07T07:29:55.517Z,20.70
2023-03-07T07:30:58.476Z,20.90
2023-03-07T07:32:02.077Z,21.10
2023-03-07T07:33:05.277Z,19.00
2023-03-07T07:34:08.288Z,20.20
2023-03-07T07:35:11.168Z,20.60
2023-03-07T07:36:14.649Z,19.90
2023-03-07T07:37:17.554Z,20.10
2023-03-07T07:38:20.457Z,19.50
2023-03-07T07:39:24.531Z,19.00
2023-03-07T07:40:28.476Z,19.90
2023-03-07T07:41:33.424Z,18.80
2023-03-07T07:42:36.491Z,18.90
2023-03-07T07:43:50.594Z,19.70
2023-03-07T07:44:57.979Z,19.70
2023-03-07T07:46:06.208Z,18.80
2023-03-07T07:47:09.740Z,17.70
2023-03-07T07:48:13.127Z,17.10
2023-03-07T07:49:17.723Z,16.60
2023-03-07T07:50:22.655Z,17.40
2023-03-07T07:51:25.613Z,16.10
2023-03-07T07:52:28.490Z,16.50
2023-03-07T07:53:31.893Z,17.00
2023-03-07T07:54:34.770Z,16.60
2023-03-07T07:55:38.302Z,16.30
2023-03-07T07:56:41.326Z,13.80
2023-03-07T07:57:44.555Z,15.50
2023-03-07T07:58:48.103Z,16.80
2023-03-07T07:59:51.396Z,15.50
2023-03-07T08:00:54.313Z,15.30
2023-03-07T08:01:57.255Z,15.80
2023-03-07T08:03:00.640Z,15.50
2023-03-07T08:04:03.945Z,16.70
2023-03-07T08:05:10.165Z,15.80
2023-03-07T08:06:13.764Z,16.20
2023-03-07T08:07:16.642Z,15.60
2023-03-07T08:08:20.040Z,15.50
2023-03-07T08:09:23.100Z,15.30
2023-03-07T08:10:26.031Z,16.50
2023-03-07T08:11:28.964Z,15.50
2023-03-07T08:12:31.802Z,15.90
2023-03-07T08:13:34.906Z,15.40
2023-03-07T08:14:38.535Z,16.10
2023-03-07T08:15:42.380Z,16.40
2023-03-07T08:16:45.256Z,15.40
2023-03-07T08:17:50.449Z,15.50
2023-03-07T08:18:58.701Z,16.60
2023-03-07T08:20:08.201Z,17.40
2023-03-07T08:21:11.042Z,18.60
2023-03-07T08:22:14.059Z,19.50
2023-03-07T08:23:16.986Z,20.00
2023-03-07T08:24:24.963Z,19.70
2023-03-07T08:25:32.556Z,19.50
2023-03-07T08:26:35.436Z,19.60
2023-03-07T08:27:38.213Z,20.50
2023-03-07T08:28:41.978Z,19.10
2023-03-07T08:29:49.442Z,19.20
2023-03-07T08:30:52.535Z,18.80
2023-03-07T08:31:55.397Z,18.90
2023-03-07T08:32:58.781Z,17.90
2023-03-07T08:34:01.710Z,18.60
2023-03-07T08:35:05.270Z,20.00
2023-03-07T08:36:08.579Z,17.80
2023-03-07T08:37:11.468Z,18.00
2023-03-07T08:38:14.395Z,17.60
2023-03-07T08:39:17.165Z,18.50
2023-03-07T08:40:20.185Z,16.90
2023-03-07T08:41:23.478Z,16.80
2023-03-07T08:42:26.495Z,16.80
2023-03-07T08:43:30.285Z,16.80
2023-03-07T08:44:33.162Z,17.50
2023-03-07T08:45:40.040Z,15.60
2023-03-07T08:46:43.287Z,14.20
2023-03-07T08:47:46.154Z,15.90
2023-03-07T08:48:49.270Z,14.90
2023-03-07T08:49:52.388Z,15.50
2023-03-07T08:50:55.832Z,16.00
2023-03-07T08:51:58.926Z,15.50
2023-03-07T08:53:01.807Z,16.10
2023-03-07T08:54:04.953Z,16.80
2023-03-07T08:55:08.116Z,16.50
2023-03-07T08:56:15.952Z,16.60
2023-03-07T08:57:19.203Z,16.90
2023-03-07T08:58:22.016Z,15.50
2023-03-07T08:59:24.841Z,16.10
2023-03-07T09:00:27.649Z,17.40
2023-03-07T09:01:30.696Z,15.60
2023-03-07T09:02:33.724Z,15.90
2023-03-07T09:03:37.067Z,16.60
2023-03-07T09:04:40.113Z,17.60
2023-03-07T09:05:43.130Z,17.30
2023-03-07T09:06:46.331Z,16.50
2023-03-07T09:07:49.516Z,17.70
2023-03-07T09:08:52.459Z,17.70
2023-03-07T09:09:55.255Z,17.60
2023-03-07T09:11:03.629Z,17.60
2023-03-07T09:12:07.038Z,17.10
2023-03-07T09:13:10.776Z,19.00
2023-03-07T09:14:13.855Z,19.50
2023-03-07T09:15:17.892Z,19.20
2023-03-07T09:16:21.841Z,19.20
2023-03-07T09:17:25.198Z,19.90
2023-03-07T09:18:30.802Z,21.00
2023-03-07T09:19:35.354Z,20.60
2023-03-07T09:20:38.883Z,20.50
2023-03-07T09:21:41.731Z,19.50
2023-03-07T09:22:45.696Z,19.80
2023-03-07T09:23:49.074Z,19.40
2023-03-07T09:24:51.924Z,19.80
2023-03-07T09:25:55.323Z,20.60
2023-03-07T09:26:58.139Z,21.80
2023-03-07T09:28:01.356Z,20.10
2023-03-07T09:29:04.664Z,19.60
2023-03-07T09:30:08.334Z,19.70
2023-03-07T09:31:13.828Z,18.60
2023-03-07T09:32:16.748Z,18.10
2023-03-07T09:33:19.868Z,20.80
2023-03-07T09:34:22.769Z,19.80
2023-03-07T09:35:25.916Z,19.30
2023-03-07T09:36:28.764Z,18.60
2023-03-07T09:37:31.580Z,20.30
2023-03-07T09:38:34.609Z,19.40
2023-03-07T09:39:37.702Z,19.50
2023-03-07T09:40:40.971Z,19.30
2023-03-07T09:41:58.778Z,19.30
2023-03-07T09:43:15.816Z,19.70
2023-03-07T09:44:31.079Z,20.10
2023-03-07T09:46:06.691Z,21.40
2023-03-07T09:47:34.422Z,21.80
2023-03-07T09:48:50.978Z,23.30
2023-03-07T09:49:55.164Z,21.40
2023-03-07T09:51:12.418Z,20.60
2023-03-07T09:52:19.585Z,18.90
2023-03-07T09:53:36.768Z,21.00
2023-03-07T09:54:50.189Z,21.30
2023-03-07T09:56:05.524Z,20.50
2023-03-07T09:57:17.889Z,22.40
2023-03-07T09:58:24.109Z,22.20
2023-03-07T09:59:38.265Z,22.50
2023-03-07T10:00:46.169Z,22.70
2023-03-07T10:01:52.774Z,23.30
2023-03-07T10:03:23.919Z,22.90
2023-03-07T10:04:38.427Z,23.40
2023-03-07T10:05:53.454Z,22.50
2023-03-07T10:06:59.243Z,24.10
2023-03-07T10:08:02.842Z,25.50
2023-03-07T10:09:14.851Z,25.50
2023-03-07T10:10:22.974Z,24.80
2023-03-07T10:11:52.707Z,24.80
2023-03-07T10:13:28.009Z,24.50
2023-03-07T10:14:36.547Z,26.90
2023-03-07T10:15:51.129Z,25.50
2023-03-07T10:17:24.699Z,25.60
2023-03-07T10:18:42.707Z,25.30
2023-03-07T10:19:56.469Z,25.40
2023-03-07T10:21:37.303Z,28.30
2023-03-07T10:22:55.641Z,26.70
2023-03-07T10:24:27.745Z,27.00
2023-03-07T10:25:40.850Z,27.90
2023-03-07T10:26:43.647Z,27.40
2023-03-07T10:27:48.154Z,27.30
2023-03-07T10:28:51.302Z,28.30
2023-03-07T10:29:56.016Z,29.60
2023-03-07T10:31:10.073Z,28.40
2023-03-07T10:32:21.303Z,28.50
2023-03-07T10:33:25.313Z,29.60
2023-03-07T10:34:32.419Z,29.20
2023-03-07T10:35:43.893Z,27.90
2023-03-07T10:36:57.453Z,28.50
2023-03-07T10:38:24.876Z,27.40
2023-03-07T10:39:38.211Z,28.20
2023-03-07T10:40:54.100Z,30.10
2023-03-07T10:41:57.448Z,29.20
2023-03-07T10:43:00.828Z,27.90
2023-03-07T10:44:03.746Z,28.20
2023-03-07T10:45:07.479Z,29.00
2023-03-07T10:46:27.078Z,30.10
2023-03-07T10:47:30.610Z,30.60
2023-03-07T10:48:37.490Z,30.30
2023-03-07T10:49:45.672Z,29.60
2023-03-07T10:51:24.084Z,29.80
2023-03-07T10:52:40.202Z,29.40
2023-03-07T10:53:43.179Z,29.50
2023-03-07T10:54:46.012Z,29.40
2023-03-07T10:55:48.856Z,28.50
2023-03-07T10:57:02.886Z,29.30
2023-03-07T10:58:20.798Z,29.20
2023-03-07T10:59:25.922Z,26.60
2023-03-07T11:00:29.325Z,28.80
2023-03-07T11:01:33.861Z,28.70
2023-03-07T11:02:44.716Z,28.00
2023-03-07T11:03:58.228Z,28.30
2023-03-07T11:05:03.788Z,25.80
2023-03-07T11:06:07.174Z,29.80
2023-03-07T11:07:34.581Z,28.70
2023-03-07T11:08:37.672Z,28.00
2023-03-07T11:09:47.904Z,27.40
2023-03-07T11:10:50.877Z,28.10
2023-03-07T11:12:05.980Z,27.70
2023-03-07T11:13:17.970Z,28.40
2023-03-07T11:14:23.899Z,27.40
2023-03-07T11:15:27.608Z,27.10
2023-03-07T11:16:30.587Z,26.90
2023-03-07T11:17:44.210Z,26.00
2023-03-07T11:18:47.586Z,27.80
2023-03-07T11:19:54.315Z,26.20
2023-03-07T11:20:59.189Z,25.30
2023-03-07T11:22:06.152Z,24.20
2023-03-07T11:23:31.527Z,25.10
2023-03-07T11:24:39.955Z,25.00
2023-03-07T11:25:43.943Z,26.20
2023-03-07T11:26:47.158Z,26.80
2023-03-07T11:27:53.677Z,25.70
2023-03-07T11:29:12.022Z,25.50
2023-03-07T11:30:22.841Z,26.40
2023-03-07T11:31:38.322Z,25.50
2023-03-07T11:32:51.287Z,25.30
2023-03-07T11:34:36.852Z,25.40
2023-03-07T11:35:52.868Z,25.80
2023-03-07T11:37:03.448Z,25.80
2023-03-07T11:39:42.002Z,26.50
2023-03-07T11:41:12.268Z,27.20
2023-03-07T11:42:24.924Z,25.50
2023-03-07T11:43:59.964Z,27.70
2023-03-07T11:45:33.452Z,24.60
2023-03-07T11:47:13.440Z,26.20
2023-03-07T11:48:22.919Z,26.70
2023-03-07T11:49:53.225Z,24.30
2023-03-07T11:51:00.228Z,26.10
2023-03-07T11:52:12.310Z,24.70
2023-03-07T11:53:15.274Z,26.90
2023-03-07T11:54:40.040Z,27.50
2023-03-07T11:55:53.998Z,27.50
2023-03-07T11:57:03.702Z,26.60
2023-03-07T11:58:20.171Z,25.90
2023-03-07T11:59:48.802Z,25.80
2023-03-07T12:01:04.364Z,27.10
2023-03-07T12:02:27.337Z,26.90
2023-03-07T12:03:55.888Z,28.00
2023-03-07T12:05:20.604Z,28.20
2023-03-07T12:06:52.006Z,27.00
2023-03-07T12:08:19.366Z,28.30
2023-03-07T12:09:54.663Z,27.80
2023-03-07T12:11:18.027Z,27.20
2023-03-07T12:12:35.142Z,29.30
2023-03-07T12:14:00.091Z,29.30
2023-03-07T12:15:25.802Z,27.10
2023-03-07T12:17:01.943Z,27.20
2023-03-07T12:18:26.527Z,28.00
2023-03-07T12:19:42.711Z,28.90
2023-03-07T12:21:07.693Z,28.10
2023-03-07T12:22:27.312Z,28.50
2023-03-07T12:23:39.192Z,28.70
2023-03-07T12:24:56.358Z,28.20
2023-03-07T12:26:03.750Z,28.60
2023-03-07T12:27:30.179Z,27.50
2023-03-07T12:28:42.980Z,28.10
2023-03-07T12:29:57.537Z,27.80
2023-03-07T12:31:25.916Z,26.70
2023-03-07T12:32:32.678Z,27.60
2023-03-07T12:33:53.985Z,27.20
2023-03-07T12:35:40.668Z,27.80
2023-03-07T12:36:52.532Z,27.50
2023-03-07T12:38:08.905Z,26.70
2023-03-07T12:39:26.034Z,27.60
2023-03-07T12:40:45.505Z,27.70
2023-03-07T12:42:03.178Z,28.70
2023-03-07T12:43:11.224Z,28.50
2023-03-07T12:44:29.256Z,27.00
2023-03-07T12:45:54.955Z,29.00
2023-03-07T12:47:11.483Z,27.40
2023-03-07T12:48:29.392Z,27.30
2023-03-07T12:49:49.670Z,25.40
2023-03-07T12:51:04.902Z,24.70
2023-03-07T12:52:20.595Z,26.70
2023-03-07T12:53:46.021Z,26.30
2023-03-07T12:55:21.716Z,25.50
2023-03-07T12:56:54.370Z,26.90
2023-03-07T12:58:15.436Z,26.20
2023-03-07T12:59:21.906Z,26.30
2023-03-07T13:00:25.241Z,26.00
2023-03-07T13:01:32.778Z,24.70
2023-03-07T13:02:44.396Z,24.50
2023-03-07T13:04:25.393Z,25.20
2023-03-07T13:06:33.586Z,25.50
2023-03-07T13:07:36.448Z,22.10
2023-03-07T13:08:40.672Z,22.80
2023-03-07T13:09:46.393Z,21.00
2023-03-07T13:10:49.835Z,22.40
2023-03-07T13:12:08.206Z,21.50
2023-03-07T13:13:43.460Z,21.60
2023-03-07T13:15:07.650Z,21.70
2023-03-07T13:16:40.635Z,20.40
2023-03-07T13:17:43.563Z,20.50
2023-03-07T13:18:46.410Z,18.90
2023-03-07T13:19:53.481Z,19.90
2023-03-07T13:21:11.650Z,20.30
2023-03-07T13:22:14.599Z,17.70
2023-03-07T13:23:27.113Z,17.00
2023-03-07T13:24:40.285Z,18.60
2023-03-07T13:26:05.443Z,17.90
2023-03-07T13:27:17.133Z,16.60
2023-03-07T13:28:39.747Z,16.60
2023-03-07T13:30:07.666Z,16.80
2023-03-07T13:31:16.654Z,16.10
2023-03-07T13:32:51.000Z,17.40
2023-03-07T13:33:54.211Z,16.50
2023-03-07T13:34:57.046Z,16.30
2023-03-07T13:36:00.857Z,16.50
2023-03-07T13:37:48.201Z,15.90
2023-03-07T13:38:51.202Z,15.30
2023-03-07T13:40:05.328Z,15.30
2023-03-07T13:41:11.263Z,15.00
2023-03-07T13:42:46.835Z,15.10
2023-03-07T13:43:52.535Z,14.40
2023-03-07T13:44:55.608Z,13.60
2023-03-07T13:46:03.493Z,13.70
2023-03-07T13:47:42.440Z,13.20
2023-03-07T13:48:59.961Z,13.70
2023-03-07T13:50:03.241Z,14.30
2023-03-07T13:51:09.157Z,13.60
2023-03-07T13:52:37.570Z,13.30
2023-03-07T13:53:46.480Z,13.90
2023-03-07T13:54:51.024Z,12.30
2023-03-07T13:56:00.552Z,13.80
2023-03-07T13:57:04.336Z,12.90
2023-03-07T13:58:19.836Z,13.10
2023-03-07T13:59:28.295Z,14.00
2023-03-07T14:00:34.339Z,12.40
2023-03-07T14:01:40.846Z,13.80
2023-03-07T14:02:45.603Z,12.70
2023-03-07T14:03:55.923Z,13.30
2023-03-07T14:05:03.168Z,13.00
2023-03-07T14:06:36.402Z,13.30
2023-03-07T14:07:42.362Z,12.20
2023-03-07T14:08:46.689Z,12.90
2023-03-07T14:09:56.704Z,11.90
2023-03-07T14:11:00.661Z,13.00
2023-03-07T14:12:11.760Z,13.50
2023-03-07T14:13:32.977Z,13.20
2023-03-07T14:14:43.489Z,12.60
2023-03-07T14:17:17.717Z,12.80
2023-03-07T14:18:26.641Z,11.90
2023-03-07T14:19:38.745Z,12.00
2023-03-07T14:21:07.045Z,12.00
2023-03-07T14:22:31.753Z,13.20
2023-03-07T14:23:52.898Z,12.50
2023-03-07T14:25:16.038Z,12.80
2023-03-07T14:26:33.578Z,11.40
2023-03-07T14:27:52.241Z,12.40
2023-03-07T14:29:00.312Z,12.30
2023-03-07T14:30:16.001Z,12.20
2023-03-07T14:31:32.021Z,12.80
2023-03-07T14:32:35.517Z,11.40
2023-03-07T14:33:39.653Z,11.40
2023-03-07T14:34:49.181Z,12.00